Time;durP1;ratioP1;P1;durP2;ratioP2;P2;SDS_P1;SDS_P2;PMS_P1;PMS_P2;Temp;Humidity;BMP_temperature;BMP_pressure;BME280_temperature;BME280_humidity;BME280_pressure;Samples;Min_cycle;Max_cycle;Signal;HPM_P1;HPM_P2
2022/05/21 00:02:04;;;;;;;3.37;1.83;;;11.70;99.90;;;;;;5049726;28;20720;-55
2022/05/21 00:04:31;;;;;;;6.43;2.07;;;11.60;99.90;;;;;;5036307;28;20211;-56
2022/05/21 00:06:58;;;;;;;6.07;2.23;;;11.60;99.90;;;;;;5055836;28;20237;-54
2022/05/21 00:09:25;;;;;;;4.33;2.10;;;11.60;99.90;;;;;;5048697;28;20218;-53
2022/05/21 00:11:52;;;;;;;4.53;1.83;;;11.60;99.90;;;;;;5050592;28;20198;-53
2022/05/21 00:14:21;;;;;;;9.33;1.77;;;11.60;99.90;;;;;;5039459;28;21053;-54
2022/05/21 00:16:50;;;;;;;5.53;2.00;;;11.60;99.90;;;;;;5045648;28;20234;-54
2022/05/21 00:19:17;;;;;;;7.10;2.70;;;11.60;99.90;;;;;;5038854;28;20213;-55
2022/05/21 00:21:43;;;;;;;5.90;2.90;;;11.60;99.90;;;;;;5059023;28;20250;-56
2022/05/21 00:24:10;;;;;;;7.93;3.07;;;11.60;99.90;;;;;;5051446;28;20679;-54
2022/05/21 00:26:37;;;;;;;10.17;2.40;;;11.60;99.90;;;;;;5064205;28;20226;-53
2022/05/21 00:29:04;;;;;;;4.77;2.80;;;11.50;99.90;;;;;;5048742;28;20557;-53
2022/05/21 00:31:33;;;;;;;5.13;2.57;;;11.50;99.90;;;;;;5039282;28;20332;-54
2022/05/21 00:34:00;;;;;;;7.90;3.10;;;11.50;99.90;;;;;;5043501;28;20219;-55
2022/05/21 00:36:27;;;;;;;4.33;2.50;;;11.40;99.90;;;;;;5043022;28;20214;-54
2022/05/21 00:38:54;;;;;;;5.03;2.40;;;11.50;99.90;;;;;;5057067;28;20606;-54
2022/05/21 00:41:20;;;;;;;5.70;2.63;;;11.40;99.90;;;;;;5043244;28;20201;-51
2022/05/21 00:43:50;;;;;;;4.90;2.40;;;11.40;99.90;;;;;;5049078;28;20203;-56
2022/05/21 00:46:19;;;;;;;5.60;2.83;;;11.40;99.90;;;;;;5043141;28;23537;-52
2022/05/21 00:48:54;;;;;;;4.93;2.50;;;11.40;99.90;;;;;;5050811;28;20198;-51
2022/05/21 00:51:26;;;;;;;3.80;2.33;;;11.50;99.90;;;;;;5040458;28;20221;-49
2022/05/21 00:53:54;;;;;;;3.57;3.00;;;11.40;99.90;;;;;;5061487;28;20214;-50
2022/05/21 00:56:23;;;;;;;5.73;3.03;;;11.50;99.90;;;;;;5053505;28;20211;-54
2022/05/21 01:01:45;;;;;;;10.23;3.00;;;11.50;99.90;;;;;;5050592;28;20202;-49
2022/05/21 01:04:13;;;;;;;5.40;3.53;;;11.40;99.90;;;;;;5039771;28;20195;-53
2022/05/21 01:06:40;;;;;;;4.37;3.43;;;11.50;99.90;;;;;;5047989;28;20245;-56
2022/05/21 01:09:08;;;;;;;4.17;3.33;;;11.50;99.90;;;;;;5045884;28;20199;-55
2022/05/21 01:11:36;;;;;;;6.93;3.33;;;11.50;99.90;;;;;;5051821;28;20312;-56
2022/05/21 01:14:05;;;;;;;7.83;3.37;;;11.50;99.90;;;;;;5054675;28;20223;-52
2022/05/21 01:16:33;;;;;;;7.87;3.47;;;11.50;99.90;;;;;;5043916;28;20222;-51
2022/05/21 01:18:59;;;;;;;3.63;3.00;;;11.40;99.90;;;;;;5051327;28;20199;-52
2022/05/21 01:21:27;;;;;;;5.83;3.13;;;11.40;99.90;;;;;;5039451;28;20202;-52
2022/05/21 01:23:56;;;;;;;4.53;3.23;;;11.40;99.90;;;;;;5053577;28;20257;-49
2022/05/21 01:26:23;;;;;;;6.30;3.40;;;11.40;99.90;;;;;;5045957;28;20215;-51
2022/05/21 01:28:50;;;;;;;4.10;2.50;;;11.40;99.90;;;;;;5044074;28;20191;-54
2022/05/21 01:31:18;;;;;;;7.00;3.83;;;11.30;99.90;;;;;;5050516;28;20532;-50
2022/05/21 01:33:46;;;;;;;4.97;3.00;;;11.30;99.90;;;;;;5043585;28;20218;-52
2022/05/21 01:36:14;;;;;;;6.73;2.90;;;11.30;99.90;;;;;;5047617;28;20537;-55
2022/05/21 01:38:42;;;;;;;3.43;3.00;;;11.20;99.90;;;;;;5046056;28;20198;-55
2022/05/21 01:41:11;;;;;;;7.10;2.73;;;11.20;99.90;;;;;;5049378;28;20651;-55
2022/05/21 01:46:24;;;;;;;5.07;2.70;;;11.20;99.90;;;;;;5055336;28;20214;-53
2022/05/21 01:48:51;;;;;;;3.87;2.87;;;11.20;99.90;;;;;;5049319;28;20194;-53
2022/05/21 01:51:18;;;;;;;5.73;3.20;;;11.20;99.90;;;;;;5048220;28;20685;-53
2022/05/21 01:53:45;;;;;;;4.10;2.73;;;11.10;99.90;;;;;;5044659;28;20312;-51
2022/05/21 01:56:15;;;;;;;4.60;3.00;;;11.10;99.90;;;;;;5048455;28;20691;-52
2022/05/21 01:58:43;;;;;;;7.77;3.00;;;11.10;99.90;;;;;;5042009;28;20274;-56
2022/05/21 02:01:11;;;;;;;4.90;2.83;;;11.10;99.90;;;;;;5049825;28;20199;-52
2022/05/21 02:03:38;;;;;;;4.13;3.10;;;11.10;99.90;;;;;;5046159;28;20249;-55
2022/05/21 02:06:06;;;;;;;5.20;2.73;;;11.10;99.90;;;;;;5049544;28;20205;-55
2022/05/21 02:08:34;;;;;;;4.83;2.40;;;11.10;99.90;;;;;;5029891;28;20202;-55
2022/05/21 02:11:01;;;;;;;6.37;2.47;;;11.10;99.90;;;;;;5059185;28;20712;-53
2022/05/21 02:13:32;;;;;;;7.37;2.80;;;11.10;99.90;;;;;;5042264;28;20623;-53
2022/05/21 02:15:59;;;;;;;4.00;2.23;;;11.10;99.90;;;;;;5049574;28;20202;-53
2022/05/21 02:18:26;;;;;;;4.90;2.90;;;11.10;99.90;;;;;;5048795;28;20568;-54
2022/05/21 02:20:54;;;;;;;3.03;2.23;;;11.20;99.90;;;;;;5044169;28;20199;-54
2022/05/21 02:23:21;;;;;;;7.20;2.40;;;11.20;99.90;;;;;;5039635;28;20725;-56
2022/05/21 02:25:48;;;;;;;5.33;2.30;;;11.20;99.90;;;;;;5051315;28;20918;-54
2022/05/21 02:28:16;;;;;;;4.80;2.17;;;11.20;99.90;;;;;;5053600;28;20220;-51
2022/05/21 02:30:44;;;;;;;4.37;1.97;;;11.20;99.90;;;;;;5040432;28;20463;-48
2022/05/21 02:33:12;;;;;;;3.37;2.00;;;11.20;99.90;;;;;;5043242;28;20215;-52
2022/05/21 02:35:39;;;;;;;3.87;2.00;;;11.30;99.90;;;;;;5037404;28;20226;-49
2022/05/21 02:40:51;;;;;;;5.33;2.20;;;11.40;99.90;;;;;;5046106;28;20920;-49
2022/05/21 02:43:18;;;;;;;4.33;2.80;;;11.40;99.90;;;;;;5051294;28;20203;-54
2022/05/21 02:45:47;;;;;;;3.23;2.60;;;11.50;99.90;;;;;;5046631;28;20598;-48
2022/05/21 02:48:14;;;;;;;6.33;3.20;;;11.50;99.90;;;;;;5054631;28;20222;-55
2022/05/21 02:50:42;;;;;;;6.30;4.00;;;11.50;99.90;;;;;;5046337;28;20206;-52
2022/05/21 02:53:16;;;;;;;3.97;3.57;;;11.50;99.90;;;;;;5049018;28;20207;-56
2022/05/21 02:55:43;;;;;;;6.57;3.40;;;11.50;99.90;;;;;;5051520;28;20218;-54
2022/05/21 02:58:11;;;;;;;4.43;3.07;;;11.50;99.90;;;;;;5048885;28;20242;-55
2022/05/21 03:00:38;;;;;;;6.13;3.10;;;11.60;99.90;;;;;;5046653;28;20184;-55
2022/05/21 03:03:06;;;;;;;8.17;3.00;;;11.60;99.90;;;;;;5060199;28;20192;-55
2022/05/21 03:05:33;;;;;;;5.03;2.97;;;11.60;99.90;;;;;;5053777;28;20896;-54
2022/05/21 03:10:20;;;;;;;7.60;2.90;;;11.60;99.90;;;;;;5050997;28;20225;-54
2022/05/21 03:10:47;;;;;;;6.00;2.60;;;11.60;99.90;;;;;;5040446;28;20233;-54
2022/05/21 03:13:14;;;;;;;3.63;2.67;;;11.60;99.90;;;;;;5057074;28;20199;-54
2022/05/21 03:15:40;;;;;;;5.63;2.70;;;11.60;99.90;;;;;;5046618;28;20283;-52
2022/05/21 03:18:11;;;;;;;6.77;2.97;;;11.70;99.90;;;;;;5048840;28;20227;-55
2022/05/21 03:20:39;;;;;;;3.43;2.83;;;11.70;99.90;;;;;;5053868;28;20277;-55
2022/05/21 03:23:07;;;;;;;6.57;3.50;;;11.70;99.90;;;;;;5050736;28;20207;-50
2022/05/21 03:25:35;;;;;;;4.27;3.17;;;11.70;99.90;;;;;;5033368;28;20268;-52
2022/05/21 03:28:05;;;;;;;4.40;3.43;;;11.70;99.90;;;;;;5056624;28;20225;-54
2022/05/21 03:30:33;;;;;;;3.57;3.27;;;11.70;99.90;;;;;;5049299;28;20278;-55
2022/05/21 03:33:00;;;;;;;5.03;3.20;;;11.70;99.90;;;;;;5051707;28;20199;-50
2022/05/21 03:35:29;;;;;;;3.70;3.40;;;11.70;99.90;;;;;;5053726;28;20223;-55
2022/05/21 03:37:55;;;;;;;5.53;3.93;;;11.70;99.90;;;;;;5046431;28;20222;-51
2022/05/21 03:40:24;;;;;;;4.57;3.77;;;11.70;99.90;;;;;;5045304;28;20195;-54
2022/05/21 03:42:51;;;;;;;4.90;3.43;;;11.70;99.90;;;;;;5050100;28;20210;-49
2022/05/21 03:45:19;;;;;;;4.23;3.20;;;11.70;99.90;;;;;;5058090;28;20222;-54
2022/05/21 03:47:46;;;;;;;4.47;2.93;;;11.70;99.90;;;;;;5044271;28;20997;-55
2022/05/21 03:50:15;;;;;;;5.00;3.63;;;11.70;99.90;;;;;;5054241;28;20280;-55
2022/05/21 03:52:44;;;;;;;4.00;3.60;;;11.80;99.90;;;;;;5046932;28;20969;-55
2022/05/21 03:55:11;;;;;;;3.73;3.30;;;11.80;99.90;;;;;;5045231;28;20215;-55
2022/05/21 03:57:39;;;;;;;3.30;3.10;;;11.80;99.90;;;;;;5041780;28;20218;-53
2022/05/21 04:00:10;;;;;;;4.00;3.33;;;11.80;99.90;;;;;;5052847;28;20199;-51
2022/05/21 04:02:39;;;;;;;6.07;3.00;;;11.80;99.90;;;;;;5049905;28;20199;-50
2022/05/21 04:05:09;;;;;;;5.13;2.97;;;11.80;99.90;;;;;;5051032;28;20192;-53
2022/05/21 04:07:39;;;;;;;5.47;2.70;;;11.80;99.90;;;;;;5045914;28;20301;-55
2022/05/21 04:10:10;;;;;;;6.37;3.03;;;11.80;99.90;;;;;;5049026;28;20682;-51
2022/05/21 04:12:36;;;;;;;4.67;2.70;;;11.80;99.90;;;;;;5032563;28;20203;-53
2022/05/21 04:15:06;;;;;;;4.63;2.87;;;11.70;99.90;;;;;;5061484;28;20219;-50
2022/05/21 04:17:33;;;;;;;4.47;2.97;;;11.70;99.90;;;;;;5046922;28;20215;-55
2022/05/21 04:20:00;;;;;;;4.63;2.83;;;11.70;99.90;;;;;;5057963;28;20203;-52
2022/05/21 04:22:27;;;;;;;4.13;3.00;;;11.80;99.90;;;;;;5049757;28;20221;-55
2022/05/21 04:24:53;;;;;;;3.60;3.30;;;11.80;99.90;;;;;;5043578;28;20199;-53
2022/05/21 04:27:21;;;;;;;3.63;2.67;;;11.80;99.90;;;;;;5050495;28;20230;-53
2022/05/21 04:29:49;;;;;;;3.93;3.53;;;11.70;99.90;;;;;;5044254;28;20866;-51
2022/05/21 04:32:16;;;;;;;3.90;3.60;;;11.80;99.90;;;;;;5051415;28;20583;-52
2022/05/21 04:34:43;;;;;;;6.03;3.77;;;11.80;99.90;;;;;;5057136;28;20217;-50
2022/05/21 04:37:10;;;;;;;5.30;3.73;;;11.80;99.90;;;;;;5054553;28;20272;-55
2022/05/21 04:39:37;;;;;;;5.30;4.60;;;11.80;99.90;;;;;;5041568;28;20207;-54
2022/05/21 04:42:05;;;;;;;8.70;5.03;;;11.90;99.90;;;;;;5050438;28;20253;-55
2022/05/21 04:44:35;;;;;;;6.73;4.80;;;11.90;99.90;;;;;;5031508;28;20200;-54
2022/05/21 04:47:03;;;;;;;5.27;4.77;;;11.90;99.90;;;;;;5052745;28;20245;-54
2022/05/21 04:49:30;;;;;;;5.80;5.10;;;11.90;99.90;;;;;;5056212;28;20198;-53
2022/05/21 04:52:01;;;;;;;7.97;5.67;;;11.90;99.90;;;;;;5045126;28;20195;-53
2022/05/21 04:54:28;;;;;;;9.23;6.43;;;11.90;99.90;;;;;;5045507;28;20207;-54
2022/05/21 04:56:55;;;;;;;8.17;6.87;;;12.00;99.90;;;;;;5054115;28;20219;-55
2022/05/21 04:59:21;;;;;;;9.83;6.63;;;12.00;99.90;;;;;;5046286;28;20203;-54
2022/05/21 05:01:50;;;;;;;7.37;6.07;;;12.00;99.90;;;;;;5054826;28;20276;-56
2022/05/21 05:04:17;;;;;;;12.63;7.70;;;12.00;99.90;;;;;;5048764;28;20198;-54
2022/05/21 05:06:43;;;;;;;10.20;7.10;;;12.10;99.90;;;;;;5053780;28;20272;-53
2022/05/21 05:09:12;;;;;;;13.03;7.63;;;12.10;99.90;;;;;;5042596;28;20206;-55
2022/05/21 05:11:39;;;;;;;9.93;7.30;;;12.10;99.90;;;;;;5049885;28;20210;-52
2022/05/21 05:14:06;;;;;;;8.00;6.80;;;12.10;99.90;;;;;;5057371;28;20186;-56
2022/05/21 05:16:33;;;;;;;9.10;7.90;;;12.20;99.90;;;;;;5045350;28;20691;-54
2022/05/21 05:19:00;;;;;;;12.37;8.67;;;12.20;99.90;;;;;;5047672;28;20198;-54
2022/05/21 05:21:27;;;;;;;14.00;9.63;;;12.20;99.90;;;;;;5050822;28;20260;-49
2022/05/21 05:23:54;;;;;;;14.90;10.40;;;12.20;99.90;;;;;;5043899;28;20211;-50
2022/05/21 05:26:22;;;;;;;14.57;9.43;;;12.20;99.90;;;;;;5052194;28;20219;-51
2022/05/21 05:28:49;;;;;;;12.77;11.07;;;12.20;99.90;;;;;;5038354;28;20200;-56
2022/05/21 05:31:16;;;;;;;16.93;11.17;;;12.20;99.90;;;;;;5043844;28;20975;-55
2022/05/21 05:33:43;;;;;;;15.30;10.97;;;12.30;99.90;;;;;;5054586;28;20195;-61
2022/05/21 05:36:11;;;;;;;17.93;12.50;;;12.30;99.90;;;;;;5044561;28;20214;-61
2022/05/21 05:38:38;;;;;;;14.93;13.17;;;12.40;99.90;;;;;;5055599;28;20248;-61
2022/05/21 05:41:07;;;;;;;14.13;12.53;;;12.40;99.90;;;;;;5037781;28;20266;-61
2022/05/21 05:43:34;;;;;;;17.53;13.30;;;12.40;99.90;;;;;;5044528;28;20226;-61
2022/05/21 05:46:01;;;;;;;17.83;14.40;;;12.40;99.90;;;;;;5031561;28;20210;-61
2022/05/21 05:48:29;;;;;;;20.07;14.97;;;12.40;99.90;;;;;;5054132;28;20554;-61
2022/05/21 05:50:57;;;;;;;19.90;14.83;;;12.50;99.90;;;;;;5051120;28;20221;-48
2022/05/21 05:53:25;;;;;;;19.23;15.27;;;12.50;99.90;;;;;;5055546;28;20195;-52
2022/05/21 05:55:52;;;;;;;19.77;15.53;;;12.50;99.90;;;;;;5035868;28;20596;-55
2022/05/21 06:01:03;;;;;;;22.53;16.37;;;12.50;99.90;;;;;;5036677;28;20332;-53
2022/05/21 06:03:29;;;;;;;21.63;15.57;;;12.50;99.90;;;;;;5046848;28;20213;-52
2022/05/21 06:05:57;;;;;;;17.73;15.80;;;12.50;99.90;;;;;;5048759;28;20200;-48
2022/05/21 06:08:25;;;;;;;17.47;15.67;;;12.50;99.90;;;;;;5047127;28;20215;-50
2022/05/21 06:10:52;;;;;;;18.10;15.17;;;12.50;99.90;;;;;;5040161;28;20211;-49
2022/05/21 06:13:19;;;;;;;18.00;16.10;;;12.50;99.90;;;;;;5053843;28;20206;-49
2022/05/21 06:15:45;;;;;;;17.93;16.23;;;12.50;99.90;;;;;;5044041;28;20710;-54
2022/05/21 06:18:14;;;;;;;21.13;15.70;;;12.50;99.90;;;;;;5040941;28;22508;-55
2022/05/21 06:20:42;;;;;;;19.67;15.80;;;12.40;99.90;;;;;;5050552;28;20243;-51
2022/05/21 06:23:09;;;;;;;19.00;15.30;;;12.40;99.90;;;;;;5054635;28;20198;-53
2022/05/21 06:25:37;;;;;;;18.97;15.77;;;12.40;99.90;;;;;;5044983;28;20658;-44
2022/05/21 06:28:05;;;;;;;19.40;15.80;;;12.40;99.90;;;;;;5044915;28;21016;-44
2022/05/21 06:30:34;;;;;;;19.23;16.23;;;12.30;99.90;;;;;;5049838;28;20207;-47
2022/05/21 06:33:13;;;;;;;21.03;17.50;;;12.40;99.90;;;;;;5037882;28;20198;-45
2022/05/21 06:35:40;;;;;;;21.37;17.20;;;12.40;99.90;;;;;;5049431;28;20202;-45
2022/05/21 06:38:07;;;;;;;20.77;16.80;;;12.40;99.90;;;;;;5051861;28;20214;-47
2022/05/21 06:40:34;;;;;;;19.47;17.37;;;12.50;99.90;;;;;;5055019;28;20207;-48
2022/05/21 06:43:02;;;;;;;24.57;18.13;;;12.50;99.90;;;;;;5039839;28;20266;-45
2022/05/21 06:45:29;;;;;;;22.20;18.47;;;12.60;99.90;;;;;;5053357;28;20245;-46
2022/05/21 06:48:00;;;;;;;23.10;18.57;;;12.60;99.90;;;;;;5030542;28;20222;-46
2022/05/21 06:50:27;;;;;;;23.63;19.37;;;12.70;99.90;;;;;;5053050;28;20213;-45
2022/05/21 06:52:54;;;;;;;24.60;18.53;;;12.80;99.90;;;;;;5053698;28;20211;-46
2022/05/21 06:55:21;;;;;;;26.93;18.60;;;12.80;99.90;;;;;;5052300;28;20207;-44
2022/05/21 06:57:48;;;;;;;21.03;17.80;;;12.80;99.90;;;;;;5036366;28;20281;-46
2022/05/21 07:00:17;;;;;;;23.83;17.50;;;12.90;99.90;;;;;;5049144;28;20200;-45
2022/05/21 07:02:44;;;;;;;20.07;16.10;;;12.90;99.90;;;;;;5043725;28;20199;-45
2022/05/21 07:07:55;;;;;;;21.33;16.47;;;12.90;99.90;;;;;;5045942;28;20719;-44
2022/05/21 07:10:25;;;;;;;21.00;16.40;;;13.00;99.90;;;;;;5050017;28;20199;-47
2022/05/21 07:12:51;;;;;;;19.07;15.57;;;13.10;99.90;;;;;;5039124;28;20244;-46
2022/05/21 07:15:20;;;;;;;24.87;16.97;;;13.10;99.90;;;;;;5047522;28;20208;-45
2022/05/21 07:17:46;;;;;;;26.20;16.93;;;13.20;99.90;;;;;;5046410;28;20215;-47
2022/05/21 07:20:15;;;;;;;21.57;15.07;;;13.30;99.90;;;;;;5043902;28;20217;-49
2022/05/21 07:22:45;;;;;;;20.43;15.10;;;13.30;99.90;;;;;;5051789;28;20234;-46
2022/05/21 07:25:12;;;;;;;21.27;15.93;;;13.30;99.90;;;;;;5049246;28;20878;-49
2022/05/21 07:27:39;;;;;;;18.60;13.63;;;13.40;99.90;;;;;;5043681;28;20222;-47
2022/05/21 07:30:07;;;;;;;19.00;13.73;;;13.50;99.90;;;;;;5043995;28;20202;-48
2022/05/21 07:32:35;;;;;;;19.83;14.97;;;13.60;99.90;;;;;;5051436;28;20261;-46
2022/05/21 07:35:08;;;;;;;19.67;13.63;;;13.70;99.90;;;;;;5045801;28;20203;-49
2022/05/21 07:37:35;;;;;;;21.30;13.73;;;13.70;99.90;;;;;;5048382;28;20262;-50
2022/05/21 07:40:02;;;;;;;15.97;12.40;;;13.80;99.90;;;;;;5057278;28;20198;-46
2022/05/21 07:42:30;;;;;;;15.10;11.27;;;14.00;99.90;;;;;;5059670;28;20268;-45
2022/05/21 07:44:57;;;;;;;17.00;12.07;;;14.10;99.90;;;;;;5045891;28;20207;-48
2022/05/21 07:47:24;;;;;;;18.57;12.13;;;14.20;99.90;;;;;;5051565;28;20218;-44
2022/05/21 07:49:56;;;;;;;15.57;10.93;;;14.30;99.90;;;;;;5041374;28;20285;-43
2022/05/21 07:52:23;;;;;;;15.43;10.63;;;14.30;99.90;;;;;;5050073;28;20294;-44
2022/05/21 07:54:50;;;;;;;12.23;10.53;;;14.30;99.90;;;;;;5050007;28;20560;-46
2022/05/21 07:57:17;;;;;;;14.93;9.50;;;14.30;99.90;;;;;;5058555;28;20219;-44
2022/05/21 07:59:44;;;;;;;13.33;10.27;;;14.40;99.90;;;;;;5039930;28;20260;-43
2022/05/21 08:02:13;;;;;;;17.23;9.77;;;14.50;99.90;;;;;;5056234;28;20205;-48
2022/05/21 08:04:41;;;;;;;11.13;9.50;;;14.60;99.90;;;;;;5042509;28;21296;-48
2022/05/21 08:07:10;;;;;;;13.37;9.43;;;14.60;99.90;;;;;;5049350;28;20223;-47
2022/05/21 08:09:37;;;;;;;13.60;8.90;;;14.60;99.90;;;;;;5048185;28;20206;-45
2022/05/21 08:12:07;;;;;;;9.67;7.37;;;14.50;99.90;;;;;;5057353;28;20202;-45
2022/05/21 08:14:34;;;;;;;10.93;6.67;;;14.50;99.90;;;;;;5049578;28;20198;-44
2022/05/21 08:17:01;;;;;;;10.23;7.33;;;14.40;99.90;;;;;;5056208;28;20233;-49
2022/05/21 08:19:28;;;;;;;9.40;6.73;;;14.40;99.90;;;;;;5053887;28;20218;-46
2022/05/21 08:26:56;;;;;;;8.57;6.50;;;14.30;99.90;;;;;;5037048;28;20463;-46
2022/05/21 08:27:27;;;;;;;6.27;4.23;;;14.10;99.90;;;;;;5054520;28;20303;-45
2022/05/21 08:29:54;;;;;;;10.10;4.87;;;14.00;99.90;;;;;;5047045;28;20196;-45
2022/05/21 08:32:21;;;;;;;6.37;4.50;;;14.10;99.90;;;;;;5049427;28;20675;-45
2022/05/21 08:34:48;;;;;;;9.17;4.17;;;14.20;99.90;;;;;;5049559;28;20210;-46
2022/05/21 08:37:15;;;;;;;4.57;3.80;;;14.40;99.90;;;;;;5037076;28;20622;-45
2022/05/21 08:39:43;;;;;;;6.27;3.40;;;14.50;99.90;;;;;;5059030;28;20211;-46
2022/05/21 08:42:14;;;;;;;6.50;3.20;;;14.60;99.90;;;;;;5053267;28;20195;-47
2022/05/21 08:44:46;;;;;;;4.93;2.83;;;14.80;99.90;;;;;;5054044;28;20655;-44
2022/05/21 08:47:20;;;;;;;6.93;3.00;;;15.00;99.90;;;;;;5047784;28;20221;-46
2022/05/21 08:49:55;;;;;;;7.60;3.10;;;15.10;99.90;;;;;;5045039;28;20671;-46
2022/05/21 08:52:25;;;;;;;5.10;2.83;;;15.20;99.90;;;;;;5044609;28;20821;-44
2022/05/21 08:54:59;;;;;;;3.37;2.13;;;15.10;99.90;;;;;;5049940;28;20201;-45
2022/05/21 08:57:29;;;;;;;4.90;2.37;;;14.90;99.90;;;;;;5049285;28;20691;-47
2022/05/21 09:00:06;;;;;;;8.20;2.50;;;14.80;99.90;;;;;;5048903;28;20202;-48
2022/05/21 09:02:35;;;;;;;5.53;2.60;;;14.80;99.90;;;;;;5052633;28;20203;-46
2022/05/21 09:05:04;;;;;;;5.17;2.27;;;14.80;99.90;;;;;;5044340;28;20281;-48
2022/05/21 09:07:41;;;;;;;5.80;2.30;;;14.70;99.90;;;;;;5039977;28;20214;-44
2022/05/21 09:10:30;;;;;;;6.17;2.60;;;14.50;99.90;;;;;;5052648;28;20270;-48
2022/05/21 09:13:03;;;;;;;7.90;2.57;;;14.30;99.90;;;;;;5048200;28;20197;-47
2022/05/21 09:18:15;;;;;;;6.87;2.47;;;14.00;99.90;;;;;;5050526;28;20218;-47
2022/05/21 09:20:51;;;;;;;4.90;2.27;;;13.90;99.90;;;;;;5055804;28;20206;-46
2022/05/21 09:23:18;;;;;;;7.73;2.87;;;13.80;99.90;;;;;;5039379;28;20210;-44
2022/05/21 09:26:03;;;;;;;4.90;3.20;;;13.80;99.90;;;;;;5056333;28;20199;-48
2022/05/21 09:28:31;;;;;;;7.33;2.97;;;13.80;99.90;;;;;;5048987;28;20195;-44
2022/05/21 09:30:58;;;;;;;7.53;3.97;;;13.70;99.90;;;;;;5049771;28;20204;-44
2022/05/21 09:33:27;;;;;;;4.37;2.63;;;13.70;99.90;;;;;;5061801;28;20602;-45
2022/05/21 09:35:56;;;;;;;5.73;2.50;;;13.80;99.90;;;;;;5055813;28;20733;-44
2022/05/21 09:38:26;;;;;;;8.40;3.00;;;13.90;99.90;;;;;;5043766;28;20616;-47
2022/05/21 09:41:11;;;;;;;7.43;2.77;;;14.00;99.90;;;;;;5044799;28;20200;-44
2022/05/21 09:46:32;;;;;;;3.27;2.27;;;13.90;99.90;;;;;;5046851;28;20215;-44
2022/05/21 09:49:14;;;;;;;3.83;2.77;;;13.90;99.90;;;;;;5043011;28;20282;-44
2022/05/21 09:51:41;;;;;;;5.50;2.20;;;13.90;99.90;;;;;;5052091;28;20199;-45
2022/05/21 09:54:20;;;;;;;6.87;2.10;;;14.00;99.90;;;;;;5045094;28;20191;-47
2022/05/21 09:56:52;;;;;;;4.70;1.80;;;14.10;99.90;;;;;;5049871;28;20218;-47
2022/05/21 09:59:21;;;;;;;2.67;1.70;;;14.30;99.90;;;;;;5047583;28;20289;-46
2022/05/21 10:01:53;;;;;;;6.07;1.80;;;14.40;99.90;;;;;;5049466;28;20202;-45
2022/05/21 10:04:27;;;;;;;3.33;1.80;;;14.30;99.90;;;;;;5049657;28;20207;-46
2022/05/21 10:06:58;;;;;;;2.33;1.90;;;14.40;99.90;;;;;;5049667;28;20219;-48
2022/05/21 10:12:25;;;;;;;5.43;1.60;;;14.40;99.90;;;;;;5046816;28;20211;-44
2022/05/21 10:15:00;;;;;;;4.27;1.43;;;14.50;99.90;;;;;;5044864;28;20201;-47
2022/05/21 10:17:32;;;;;;;3.47;1.80;;;14.50;99.90;;;;;;5053742;28;20242;-44
2022/05/21 10:20:11;;;;;;;3.30;2.17;;;14.50;99.90;;;;;;5045073;28;21354;-49
2022/05/21 10:22:46;;;;;;;4.57;2.03;;;14.40;99.90;;;;;;5050090;28;20251;-44
2022/05/21 10:25:17;;;;;;;5.30;2.80;;;14.40;99.90;;;;;;5039114;28;20206;-47
2022/05/21 10:28:11;;;;;;;6.20;2.70;;;14.30;99.90;;;;;;5052036;28;20210;-45
2022/05/21 10:30:58;;;;;;;8.83;3.10;;;14.40;99.90;;;;;;5049126;28;20203;-45
2022/05/21 10:33:33;;;;;;;9.43;2.87;;;14.40;99.90;;;;;;5058547;28;20195;-45
2022/05/21 10:36:12;;;;;;;12.70;3.00;;;14.40;99.90;;;;;;5036143;28;21283;-45
2022/05/21 10:39:00;;;;;;;6.90;3.30;;;14.50;99.90;;;;;;5051562;28;20190;-47
2022/05/21 10:41:42;;;;;;;6.37;3.53;;;14.60;99.90;;;;;;5043462;28;20230;-44
2022/05/21 10:44:21;;;;;;;8.37;3.47;;;14.80;99.90;;;;;;5048623;28;20257;-48
2022/05/21 10:46:58;;;;;;;7.00;2.70;;;14.90;99.90;;;;;;5039837;28;20723;-44
2022/05/21 10:49:54;;;;;;;6.80;1.80;;;14.90;99.90;;;;;;5045761;28;20195;-45
2022/05/21 10:52:33;;;;;;;6.37;1.70;;;15.00;99.90;;;;;;5049784;28;20204;-46
2022/05/21 10:55:12;;;;;;;6.80;2.03;;;15.10;99.90;;;;;;5038906;28;20195;-47
2022/05/21 10:57:54;;;;;;;6.87;2.77;;;15.20;99.90;;;;;;5040785;28;20222;-47
2022/05/21 11:00:28;;;;;;;5.20;2.00;;;15.20;99.90;;;;;;5051873;28;20791;-45
2022/05/21 11:03:15;;;;;;;6.40;2.17;;;15.20;99.90;;;;;;5059124;28;20191;-45
2022/05/21 11:05:55;;;;;;;4.87;1.63;;;15.30;99.90;;;;;;5046927;28;20210;-44
2022/05/21 11:08:29;;;;;;;4.73;1.80;;;15.30;99.90;;;;;;5046618;28;20626;-47
2022/05/21 11:11:03;;;;;;;5.33;1.70;;;15.40;99.90;;;;;;5043133;28;20206;-46
2022/05/21 11:13:36;;;;;;;3.80;1.60;;;15.60;99.90;;;;;;5041924;28;20214;-45
2022/05/21 11:16:13;;;;;;;6.40;1.30;;;15.70;99.90;;;;;;5062908;28;20275;-45
2022/05/21 11:18:45;;;;;;;5.40;1.60;;;15.70;99.90;;;;;;5051132;28;21053;-44
2022/05/21 11:21:18;;;;;;;5.30;1.77;;;15.80;99.90;;;;;;5054980;28;20310;-46
2022/05/21 11:23:57;;;;;;;3.07;1.73;;;15.80;99.90;;;;;;5047519;28;20195;-50
2022/05/21 11:26:32;;;;;;;4.33;1.23;;;15.70;99.90;;;;;;5049992;28;20655;-44
2022/05/21 11:29:07;;;;;;;6.63;2.27;;;15.60;99.90;;;;;;5055570;28;20207;-51
2022/05/21 11:37:29;;;;;;;4.90;1.75;;;15.60;99.90;;;;;;5053324;28;20451;-44
2022/05/21 11:39:58;;;;;;;8.43;2.00;;;15.40;99.90;;;;;;5052326;28;20672;-45
2022/05/21 11:42:28;;;;;;;7.03;1.70;;;15.30;99.90;;;;;;5046440;28;20233;-44
2022/05/21 11:44:56;;;;;;;6.63;1.60;;;15.20;99.90;;;;;;5060394;28;20202;-45
2022/05/21 11:47:45;;;;;;;7.00;1.40;;;15.30;99.90;;;;;;5055328;28;20893;-44
2022/05/21 11:50:18;;;;;;;5.07;1.40;;;15.40;99.90;;;;;;5047867;28;20208;-44
2022/05/21 11:52:54;;;;;;;7.97;1.60;;;15.60;99.90;;;;;;5046038;28;20281;-47
2022/05/21 11:55:25;;;;;;;3.40;1.40;;;15.70;99.90;;;;;;5056418;28;20246;-45
2022/05/21 11:57:55;;;;;;;4.90;1.07;;;16.00;99.90;;;;;;5051857;28;20219;-44
2022/05/21 12:00:55;;;;;;;3.50;1.20;;;16.20;99.90;;;;;;5036756;28;20210;-49
2022/05/21 12:03:25;;;;;;;2.33;1.60;;;16.40;99.90;;;;;;5054210;28;21001;-46
2022/05/21 12:06:32;;;;;;;5.23;1.60;;;16.20;99.90;;;;;;5053767;28;20211;-46
2022/05/21 12:09:24;;;;;;;6.07;2.03;;;16.10;99.90;;;;;;5040994;28;21161;-48
2022/05/21 12:11:52;;;;;;;2.83;1.13;;;15.90;99.90;;;;;;5039793;28;20215;-45
2022/05/21 12:14:48;;;;;;;8.13;1.90;;;15.80;99.90;;;;;;5044221;28;20208;-46
2022/05/21 12:17:37;;;;;;;6.17;1.87;;;15.90;99.90;;;;;;5053866;28;20867;-44
2022/05/21 12:20:10;;;;;;;3.60;1.63;;;16.00;99.90;;;;;;5050231;28;20199;-44
2022/05/21 12:22:46;;;;;;;6.23;1.17;;;16.00;99.90;;;;;;5047168;28;20198;-42
2022/05/21 12:26:00;;;;;;;5.47;1.40;;;16.00;99.90;;;;;;5059396;28;20199;-42
2022/05/21 12:28:51;;;;;;;5.07;1.60;;;16.10;99.90;;;;;;5059117;28;20213;-43
2022/05/21 12:31:24;;;;;;;5.70;1.40;;;16.00;99.90;;;;;;5046861;28;20205;-47
2022/05/21 12:34:12;;;;;;;7.30;1.97;;;15.90;99.90;;;;;;5053233;28;20244;-44
2022/05/21 12:37:01;;;;;;;6.10;1.27;;;15.80;99.90;;;;;;5041692;28;20233;-47
2022/05/21 12:39:33;;;;;;;3.77;1.63;;;15.80;99.90;;;;;;5042633;28;20345;-42
2022/05/21 12:42:08;;;;;;;5.37;1.27;;;15.70;99.90;;;;;;5049775;28;20278;-44
2022/05/21 12:44:38;;;;;;;3.33;1.63;;;16.00;99.90;;;;;;5050368;28;20194;-49
2022/05/21 12:47:05;;;;;;;5.30;1.03;;;16.00;99.90;;;;;;5042773;28;20226;-47
2022/05/21 12:49:32;;;;;;;6.97;1.70;;;16.00;99.90;;;;;;5051621;28;20430;-51
2022/05/21 12:51:59;;;;;;;5.87;1.47;;;16.10;99.90;;;;;;5062845;28;20206;-45
2022/05/21 12:54:28;;;;;;;8.20;1.70;;;16.30;99.90;;;;;;5045430;28;20199;-47
2022/05/21 12:56:57;;;;;;;7.37;1.67;;;16.60;99.90;;;;;;5056605;28;20238;-43
2022/05/21 12:59:27;;;;;;;2.37;1.10;;;16.50;99.90;;;;;;5050488;28;20207;-43
2022/05/21 13:01:58;;;;;;;4.30;1.43;;;16.40;99.90;;;;;;5038628;28;20199;-44
2022/05/21 13:04:29;;;;;;;7.30;1.47;;;16.20;99.90;;;;;;5051001;28;20199;-45
2022/05/21 13:07:00;;;;;;;6.45;1.50;;;16.30;99.90;;;;;;5056476;28;20426;-48
2022/05/21 13:09:27;;;;;;;3.03;1.00;;;16.50;99.90;;;;;;5073957;28;20198;-47
2022/05/21 13:11:55;;;;;;;6.23;1.47;;;16.60;99.90;;;;;;5053504;28;20201;-44
2022/05/21 13:14:29;;;;;;;3.47;1.20;;;16.70;99.90;;;;;;5052851;28;20207;-42
2022/05/21 13:16:59;;;;;;;4.60;1.27;;;16.40;99.90;;;;;;5039217;28;20897;-44
2022/05/21 13:19:55;;;;;;;6.10;1.60;;;16.30;99.90;;;;;;5063026;28;20285;-46
2022/05/21 13:22:33;;;;;;;3.57;0.97;;;16.20;99.90;;;;;;5056587;28;20211;-41
2022/05/21 13:25:03;;;;;;;4.77;1.70;;;16.30;99.90;;;;;;5057283;28;20194;-42
2022/05/21 13:27:42;;;;;;;6.00;1.30;;;16.30;99.90;;;;;;5043330;28;20214;-44
2022/05/21 13:30:13;;;;;;;3.60;1.30;;;16.30;99.90;;;;;;5058476;28;20202;-44
2022/05/21 13:32:41;;;;;;;6.93;1.37;;;16.30;99.90;;;;;;5039844;28;20201;-48